Time;durP1;ratioP1;P1;durP2;ratioP2;P2;SDS_P1;SDS_P2;PMS_P1;PMS_P2;Temp;Humidity;BMP_temperature;BMP_pressure;BME280_temperature;BME280_humidity;BME280_pressure;Samples;Min_cycle;Max_cycle;Signal;HPM_P1;HPM_P2
2023/07/15 00:00:36;;;;;;;;;;;;;;;25.13;50.33;100401.13;42286386;28;24036;-82
2023/07/15 00:20:37;;;;;;;;;;;;;;;24.92;51.09;100383.63;42276688;28;19924;-81
2023/07/15 00:40:39;;;;;;;;;;;;;;;24.59;51.66;100389.22;42289976;28;19931;-79
2023/07/15 01:00:48;;;;;;;;;;;;;;;24.37;52.60;100371.84;42251308;28;19967;-79
2023/07/15 01:20:50;;;;;;;;;;;;;;;24.23;53.24;100359.03;42270328;28;19946;-80
2023/07/15 01:40:51;;;;;;;;;;;;;;;24.00;53.03;100374.34;42289342;28;19932;-80
2023/07/15 02:00:51;;;;;;;;;;;;;;;23.69;54.55;100374.41;42282938;28;20011;-82
2023/07/15 02:20:52;;;;;;;;;;;;;;;23.55;55.70;100373.00;42283814;28;19932;-79
2023/07/15 02:40:53;;;;;;;;;;;;;;;23.42;56.69;100389.06;42287093;28;19970;-80
2023/07/15 03:00:54;;;;;;;;;;;;;;;23.25;57.16;100396.63;42301497;28;21563;-82
2023/07/15 03:20:56;;;;;;;;;;;;;;;23.11;57.97;100395.16;42284616;28;19931;-81
2023/07/15 03:40:56;;;;;;;;;;;;;;;23.06;58.39;100400.00;42302525;28;19923;-79
2023/07/15 04:00:57;;;;;;;;;;;;;;;22.94;59.25;100404.53;42274777;28;20306;-80
2023/07/15 04:20:58;;;;;;;;;;;;;;;23.05;59.01;100392.22;42297737;28;19924;-80
2023/07/15 04:40:58;;;;;;;;;;;;;;;23.20;55.67;100401.50;42271765;28;19923;-81
2023/07/15 05:00:58;;;;;;;;;;;;;;;23.39;52.49;100406.03;42279993;28;20019;-81
2023/07/15 05:21:00;;;;;;;;;;;;;;;23.43;51.15;100419.81;42278000;28;19924;-80
2023/07/15 05:41:00;;;;;;;;;;;;;;;23.58;51.80;100425.56;42252684;28;20014;-80
2023/07/15 06:01:00;;;;;;;;;;;;;;;23.82;50.98;100446.38;42263862;28;19928;-79
2023/07/15 06:21:01;;;;;;;;;;;;;;;24.04;50.62;100440.06;42242503;28;19927;-83
2023/07/15 06:41:08;;;;;;;;;;;;;;;24.25;50.14;100442.56;42132363;28;21360;-79
2023/07/15 07:01:08;;;;;;;;;;;;;;;24.58;50.20;100455.56;42127008;28;19942;-82
2023/07/15 07:21:09;;;;;;;;;;;;;;;24.89;50.26;100445.69;42109675;28;21241;-79
2023/07/15 07:41:10;;;;;;;;;;;;;;;25.08;49.76;100442.16;42095496;28;22484;-84
2023/07/15 08:01:11;;;;;;;;;;;;;;;25.32;49.90;100448.78;42088317;28;19924;-81
2023/07/15 08:21:11;;;;;;;;;;;;;;;25.58;50.15;100429.56;42205374;28;19938;-86
2023/07/15 08:41:12;;;;;;;;;;;;;;;25.84;48.88;100424.44;42296775;28;19924;-88
2023/07/15 09:01:14;;;;;;;;;;;;;;;26.11;48.68;100414.78;42298274;28;19925;-79
2023/07/15 09:21:16;;;;;;;;;;;;;;;26.38;48.66;100431.63;42209123;28;20407;-80
2023/07/15 09:41:19;;;;;;;;;;;;;;;26.50;48.03;100432.19;42093722;28;19928;-81
2023/07/15 10:01:24;;;;;;;;;;;;;;;26.67;48.25;100422.53;42120424;28;19924;-83
2023/07/15 10:21:24;;;;;;;;;;;;;;;26.81;47.80;100411.41;42108596;28;19924;-79
2023/07/15 10:41:38;;;;;;;;;;;;;;;27.00;47.67;100402.38;42129191;28;19924;-82
2023/07/15 11:01:39;;;;;;;;;;;;;;;27.13;47.39;100385.19;42085228;28;19920;-77
2023/07/15 11:21:39;;;;;;;;;;;;;;;27.28;48.24;100374.78;42035587;28;1873828;-86
2023/07/15 11:41:40;;;;;;;;;;;;;;;27.52;46.65;100359.94;42114413;28;19931;-82
2023/07/15 12:01:40;;;;;;;;;;;;;;;27.73;48.60;100338.22;42085624;28;19996;-80
2023/07/15 12:21:41;;;;;;;;;;;;;;;28.21;45.15;100323.31;42120030;28;19974;-79
2023/07/15 12:41:41;;;;;;;;;;;;;;;28.38;44.49;100312.63;42079704;28;19924;-81
2023/07/15 13:01:41;;;;;;;;;;;;;;;28.64;44.16;100306.25;42069968;28;19928;-76
2023/07/15 13:21:43;;;;;;;;;;;;;;;28.54;44.69;100290.47;42149493;28;19932;-87
2023/07/15 13:41:43;;;;;;;;;;;;;;;28.64;44.48;100266.28;42278502;27;19923;-79
2023/07/15 14:01:44;;;;;;;;;;;;;;;28.96;43.44;100259.22;42280832;27;20309;-82
2023/07/15 14:21:44;;;;;;;;;;;;;;;29.05;43.86;100236.84;42239204;27;19932;-75
2023/07/15 14:41:45;;;;;;;;;;;;;;;29.07;42.25;100246.31;42267328;28;19949;-76
2023/07/15 15:01:45;;;;;;;;;;;;;;;29.01;42.36;100212.38;42287546;27;20010;-76
2023/07/15 15:21:46;;;;;;;;;;;;;;;29.04;42.27;100196.03;42269118;28;20014;-76
2023/07/15 15:41:47;;;;;;;;;;;;;;;29.06;42.29;100194.03;42281150;28;19928;-76
2023/07/15 16:01:47;;;;;;;;;;;;;;;29.11;43.37;100185.47;42271473;28;20336;-76
2023/07/15 16:21:47;;;;;;;;;;;;;;;29.05;42.89;100167.53;42214648;27;20387;-77
2023/07/15 16:41:48;;;;;;;;;;;;;;;29.01;42.66;100166.25;42218972;28;19928;-76
2023/07/15 17:01:48;;;;;;;;;;;;;;;28.94;42.31;100175.94;42222845;28;19927;-75
2023/07/15 17:21:49;;;;;;;;;;;;;;;28.87;42.33;100179.31;42232003;28;19946;-78
2023/07/15 17:41:49;;;;;;;;;;;;;;;28.75;42.22;100183.38;42221853;28;19924;-76
2023/07/15 18:01:49;;;;;;;;;;;;;;;28.63;42.02;100177.56;42175792;28;19930;-76
2023/07/15 18:21:50;;;;;;;;;;;;;;;28.56;42.52;100187.25;42284200;28;20037;-77
2023/07/15 18:41:50;;;;;;;;;;;;;;;28.50;44.36;100195.94;42246759;28;20294;-77
2023/07/15 19:01:50;;;;;;;;;;;;;;;28.43;43.79;100209.94;42274683;28;19973;-79
2023/07/15 19:21:51;;;;;;;;;;;;;;;28.23;44.37;100209.47;42230356;28;19931;-76
2023/07/15 19:41:51;;;;;;;;;;;;;;;28.17;44.65;100207.50;42202795;28;19938;-76
2023/07/15 20:01:51;;;;;;;;;;;;;;;28.01;45.67;100212.84;42232885;27;19927;-75
2023/07/15 20:21:52;;;;;;;;;;;;;;;27.80;46.83;100207.00;42241442;27;19954;-75
2023/07/15 20:41:52;;;;;;;;;;;;;;;27.63;46.92;100210.69;42229194;28;19932;-74
2023/07/15 21:01:53;;;;;;;;;;;;;;;27.52;46.77;100208.38;42224738;28;21412;-75
2023/07/15 21:21:54;;;;;;;;;;;;;;;27.35;47.52;100208.31;42205029;28;19976;-75
2023/07/15 21:41:54;;;;;;;;;;;;;;;27.22;47.96;100197.31;42218529;28;20470;-74
2023/07/15 22:01:54;;;;;;;;;;;;;;;26.86;49.14;100219.66;42243949;28;19927;-74
2023/07/15 22:21:55;;;;;;;;;;;;;;;26.65;49.93;100228.00;42261140;28;20390;-75
2023/07/15 22:41:56;;;;;;;;;;;;;;;26.39;51.56;100217.41;42245637;28;20008;-74
2023/07/15 23:01:58;;;;;;;;;;;;;;;26.25;52.26;100222.31;42184215;28;19943;-76
2023/07/15 23:21:58;;;;;;;;;;;;;;;26.19;52.83;100207.84;42206210;28;20379;-75
2023/07/15 23:41:58;;;;;;;;;;;;;;;26.01;53.49;100197.25;42262733;28;20070;-74
